Time;durP1;ratioP1;P1;durP2;ratioP2;P2;SDS_P1;SDS_P2;PMS_P1;PMS_P2;Temp;Humidity;BMP_temperature;BMP_pressure;BME280_temperature;BME280_humidity;BME280_pressure;Samples;Min_cycle;Max_cycle;Signal;HPM_P1;HPM_P2
2023/05/04 00:08:06;;;;;;;;;;;;;;;8.18;100.00;98032.69;18564077;32;20007;-52
2023/05/04 00:18:08;;;;;;;;;;;;;;;8.07;100.00;98028.19;18563520;32;19999;-54
2023/05/04 00:28:11;;;;;;;;;;;;;;;7.97;100.00;98010.81;18548431;31;20000;-55
2023/05/04 00:38:15;;;;;;;;;;;;;;;7.92;100.00;98007.19;18562390;32;19952;-54
2023/05/04 00:48:18;;;;;;;;;;;;;;;7.81;100.00;98014.28;18561755;32;19952;-53
2023/05/04 00:58:21;;;;;;;;;;;;;;;7.70;100.00;98004.41;18561583;32;19953;-51
2023/05/04 01:08:29;;;;;;;;;;;;;;;7.57;100.00;98011.75;18561477;32;19969;-54
2023/05/04 01:18:32;;;;;;;;;;;;;;;7.41;100.00;97991.00;18560986;32;19956;-54
2023/05/04 01:28:48;;;;;;;;;;;;;;;7.35;100.00;97986.59;18560321;32;19987;-53
2023/05/04 01:38:53;;;;;;;;;;;;;;;7.33;100.00;97997.59;18560290;32;19949;-53
2023/05/04 01:48:56;;;;;;;;;;;;;;;7.24;100.00;97986.41;18571409;32;19974;-53
2023/05/04 01:58:58;;;;;;;;;;;;;;;7.18;100.00;97997.28;18571930;32;19948;-54
2023/05/04 02:09:02;;;;;;;;;;;;;;;7.09;100.00;98002.25;18556552;32;19956;-53
2023/05/04 02:19:04;;;;;;;;;;;;;;;6.99;100.00;98005.56;18570748;31;20272;-52
2023/05/04 02:29:06;;;;;;;;;;;;;;;6.87;100.00;98004.78;18570360;32;19960;-53
2023/05/04 02:39:09;;;;;;;;;;;;;;;6.81;100.00;98009.22;18569488;32;19957;-54
2023/05/04 02:49:11;;;;;;;;;;;;;;;6.75;100.00;98008.28;18569072;32;19987;-55
2023/05/04 02:59:13;;;;;;;;;;;;;;;6.70;100.00;98001.97;18567518;32;19960;-53
2023/05/04 03:09:16;;;;;;;;;;;;;;;6.59;100.00;97991.03;18567657;32;20000;-54
2023/05/04 03:19:20;;;;;;;;;;;;;;;6.48;100.00;97994.53;18566970;32;19971;-55
2023/05/04 03:29:23;;;;;;;;;;;;;;;6.43;100.00;97987.19;18566641;32;19964;-53
2023/05/04 03:39:25;;;;;;;;;;;;;;;6.43;100.00;97983.69;18565613;32;19990;-54
2023/05/04 03:49:27;;;;;;;;;;;;;;;6.37;100.00;97972.03;18551044;32;19953;-55
2023/05/04 03:59:30;;;;;;;;;;;;;;;6.37;100.00;97957.75;18537984;32;20016;-53
2023/05/04 04:09:32;;;;;;;;;;;;;;;6.37;100.00;97981.94;18563383;31;19949;-52
2023/05/04 04:19:34;;;;;;;;;;;;;;;6.39;100.00;97986.03;18563504;32;20012;-55
2023/05/04 04:29:38;;;;;;;;;;;;;;;6.49;100.00;97984.62;18563026;32;20024;-55
2023/05/04 04:39:41;;;;;;;;;;;;;;;6.53;100.00;97981.22;18562290;32;19982;-52
2023/05/04 04:49:43;;;;;;;;;;;;;;;6.67;100.00;97997.91;18562435;32;19990;-52
2023/05/04 04:59:46;;;;;;;;;;;;;;;6.87;100.00;97999.41;18561698;32;19993;-55
2023/05/04 05:09:48;;;;;;;;;;;;;;;7.12;100.00;97996.37;18561462;32;19996;-53
2023/05/04 05:19:51;;;;;;;;;;;;;;;7.33;100.00;97999.47;18567558;32;19996;-55
2023/05/04 05:29:53;;;;;;;;;;;;;;;7.63;100.00;97983.88;18559373;32;20025;-55
2023/05/04 05:39:55;;;;;;;;;;;;;;;7.97;100.00;97988.44;18573071;32;20000;-54
2023/05/04 05:49:58;;;;;;;;;;;;;;;8.36;100.00;98001.97;18572649;32;20317;-54
2023/05/04 06:00:00;;;;;;;;;;;;;;;8.75;100.00;97993.91;18571915;31;20339;-54
2023/05/04 06:10:03;;;;;;;;;;;;;;;9.27;100.00;97989.13;18571546;32;19985;-53
2023/05/04 06:20:06;;;;;;;;;;;;;;;9.90;100.00;97975.94;18570946;32;20272;-55
2023/05/04 06:30:09;;;;;;;;;;;;;;;10.59;100.00;97981.53;18555932;32;19948;-52
2023/05/04 06:40:12;;;;;;;;;;;;;;;11.28;100.00;97985.88;18555228;32;20013;-55
2023/05/04 06:50:15;;;;;;;;;;;;;;;11.98;100.00;97965.69;18569056;32;19992;-56
2023/05/04 07:00:23;;;;;;;;;;;;;;;12.59;100.00;97982.94;18568549;32;19957;-56
2023/05/04 07:10:25;;;;;;;;;;;;;;;13.18;100.00;97974.03;18567849;32;19945;-56
2023/05/04 07:20:28;;;;;;;;;;;;;;;13.87;100.00;97974.16;18552729;32;19971;-56
2023/05/04 07:30:31;;;;;;;;;;;;;;;14.41;100.00;97961.41;18566513;32;19985;-56
2023/05/04 07:40:34;;;;;;;;;;;;;;;15.08;100.00;97966.13;18550895;32;20012;-56
2023/05/04 07:50:38;;;;;;;;;;;;;;;15.70;100.00;97959.78;18564956;31;19968;-56
2023/05/04 08:00:42;;;;;;;;;;;;;;;16.01;99.45;97972.19;18565401;32;19973;-57
2023/05/04 08:10:45;;;;;;;;;;;;;;;16.37;100.00;97980.53;18564333;32;19956;-55
2023/05/04 08:20:47;;;;;;;;;;;;;;;16.81;95.94;97985.75;18549425;32;19972;-55
2023/05/04 08:30:50;;;;;;;;;;;;;;;17.47;97.30;97978.09;18562853;32;19985;-56
2023/05/04 08:40:53;;;;;;;;;;;;;;;17.92;93.07;97983.69;18562068;31;20381;-56
2023/05/04 08:50:56;;;;;;;;;;;;;;;18.20;83.22;97982.72;18561750;32;19967;-56
2023/05/04 09:00:59;;;;;;;;;;;;;;;18.69;89.78;97967.22;18547761;32;19972;-56
2023/05/04 09:11:03;;;;;;;;;;;;;;;19.16;83.75;97985.91;18561175;32;19957;-56
2023/05/04 09:21:05;;;;;;;;;;;;;;;19.66;80.75;97983.88;18560874;32;20008;-55
2023/05/04 09:31:10;;;;;;;;;;;;;;;20.15;70.12;97982.56;18560652;32;20078;-56
2023/05/04 09:41:13;;;;;;;;;;;;;;;20.40;76.37;97976.56;18559863;32;19993;-56
2023/05/04 09:51:19;;;;;;;;;;;;;;;20.61;71.52;97974.72;18545726;32;20020;-57
2023/05/04 10:01:28;;;;;;;;;;;;;;;20.97;70.43;97954.22;18560109;32;20394;-55
2023/05/04 10:11:31;;;;;;;;;;;;;;;21.54;62.98;97954.03;18571487;32;20004;-57
2023/05/04 10:21:43;;;;;;;;;;;;;;;21.74;64.46;97944.16;18570767;32;20284;-57
2023/05/04 10:31:46;;;;;;;;;;;;;;;22.24;64.10;97934.94;18569973;31;19975;-57
2023/05/04 10:42:00;;;;;;;;;;;;;;;22.65;59.41;97922.16;18555759;32;19977;-57
2023/05/04 10:52:06;;;;;;;;;;;;;;;23.16;56.38;97915.50;18569399;32;20303;-58
2023/05/04 11:02:10;;;;;;;;;;;;;;;23.61;55.52;97900.66;18568450;32;19952;-57
2023/05/04 11:12:13;;;;;;;;;;;;;;;24.16;53.99;97889.13;18567784;32;19952;-57
2023/05/04 11:22:19;;;;;;;;;;;;;;;24.40;50.79;97874.34;18566422;32;19953;-57
2023/05/04 11:32:22;;;;;;;;;;;;;;;24.62;48.16;97864.63;18552169;31;19971;-57
2023/05/04 11:42:25;;;;;;;;;;;;;;;25.02;46.60;97851.72;18551499;32;19965;-57
2023/05/04 11:52:29;;;;;;;;;;;;;;;25.56;48.59;97847.34;18565284;32;20016;-57
2023/05/04 12:02:33;;;;;;;;;;;;;;;25.70;43.49;97844.03;18564563;32;19971;-57
2023/05/04 12:12:36;;;;;;;;;;;;;;;26.06;43.32;97839.19;18549272;32;19967;-58
2023/05/04 12:22:40;;;;;;;;;;;;;;;26.55;47.42;97837.63;18563333;31;19991;-58
2023/05/04 12:32:43;;;;;;;;;;;;;;;26.91;42.74;97826.28;18562673;32;19975;-57
2023/05/04 12:42:46;;;;;;;;;;;;;;;27.09;40.80;97812.63;18562492;32;20291;-57
2023/05/04 12:52:49;;;;;;;;;;;;;;;27.69;41.61;97800.66;18561747;32;20261;-57
2023/05/04 13:02:52;;;;;;;;;;;;;;;28.02;39.00;97785.91;18547502;32;19945;-57
2023/05/04 13:12:55;;;;;;;;;;;;;;;28.53;40.92;97783.53;18560999;32;19986;-57
2023/05/04 13:22:57;;;;;;;;;;;;;;;28.80;35.67;97759.06;18546683;32;19953;-57
2023/05/04 13:33:13;;;;;;;;;;;;;;;29.16;37.88;97752.87;18560932;31;19961;-57
2023/05/04 13:43:29;;;;;;;;;;;;;;;29.56;34.61;97753.78;18555545;32;20294;-57
2023/05/04 13:53:34;;;;;;;;;;;;;;;29.72;37.48;97745.87;18572659;32;19953;-57
2023/05/04 14:03:36;;;;;;;;;;;;;;;29.97;35.87;97733.16;18557651;32;19988;-57
2023/05/04 14:13:39;;;;;;;;;;;;;;;30.14;37.74;97717.66;18571277;32;19993;-57
2023/05/04 14:23:43;;;;;;;;;;;;;;;31.02;32.92;97698.28;18570796;32;19990;-57
2023/05/04 14:33:46;;;;;;;;;;;;;;;30.80;37.74;97680.03;18570273;31;19956;-58
2023/05/04 14:43:48;;;;;;;;;;;;;;;30.81;33.53;97678.81;18555533;32;19968;-58
2023/05/04 14:53:51;;;;;;;;;;;;;;;30.25;31.64;97671.00;18568624;32;20005;-57
2023/05/04 15:03:55;;;;;;;;;;;;;;;30.43;37.12;97654.22;18568265;31;19948;-55
2023/05/04 15:13:58;;;;;;;;;;;;;;;30.37;39.01;97662.22;18567881;32;20028;-57
2023/05/04 15:24:01;;;;;;;;;;;;;;;29.61;36.48;97649.53;18567148;32;19952;-57
2023/05/04 15:34:04;;;;;;;;;;;;;;;28.88;37.16;97634.69;18566367;31;20280;-56
2023/05/04 15:44:07;;;;;;;;;;;;;;;28.68;38.49;97643.38;18566017;32;20384;-56
2023/05/04 15:54:10;;;;;;;;;;;;;;;28.10;36.05;97644.25;18565229;32;20013;-56
2023/05/04 16:04:13;;;;;;;;;;;;;;;27.42;38.83;97636.16;18564105;32;19996;-57
2023/05/04 16:14:16;;;;;;;;;;;;;;;27.33;35.94;97640.00;18564192;32;20380;-57
2023/05/04 16:24:18;;;;;;;;;;;;;;;27.55;47.92;97634.69;18549062;32;20050;-57
2023/05/04 16:34:21;;;;;;;;;;;;;;;28.76;43.54;97635.03;18562986;31;19996;-57
2023/05/04 16:44:23;;;;;;;;;;;;;;;27.95;44.88;97638.53;18562577;32;20254;-56
2023/05/04 16:54:26;;;;;;;;;;;;;;;26.52;51.34;97633.97;18547444;31;19953;-56
2023/05/04 17:04:30;;;;;;;;;;;;;;;25.85;54.34;97631.84;18561491;32;19987;-55
2023/05/04 17:14:33;;;;;;;;;;;;;;;24.74;62.40;97622.41;18546219;32;19949;-57
2023/05/04 17:24:36;;;;;;;;;;;;;;;24.12;70.90;97637.69;18546947;32;19953;-54
2023/05/04 17:34:38;;;;;;;;;;;;;;;24.02;76.84;97641.81;18560334;32;20024;-55
2023/05/04 17:44:41;;;;;;;;;;;;;;;24.40;83.51;97649.72;18560042;31;20317;-55
2023/05/04 17:54:43;;;;;;;;;;;;;;;24.56;86.99;97666.22;18545646;32;20359;-53
2023/05/04 18:04:45;;;;;;;;;;;;;;;24.42;88.27;97678.59;18559387;32;20000;-55
2023/05/04 18:14:49;;;;;;;;;;;;;;;23.33;91.91;97679.91;18559410;32;19957;-55
2023/05/04 18:24:52;;;;;;;;;;;;;;;22.21;94.01;97687.72;18562435;32;19956;-53
2023/05/04 18:34:56;;;;;;;;;;;;;;;21.48;96.43;97705.81;18569834;31;19961;-55
2023/05/04 18:44:59;;;;;;;;;;;;;;;20.96;100.00;97729.94;18555513;32;19983;-56
2023/05/04 18:55:02;;;;;;;;;;;;;;;20.30;99.13;97747.06;18554937;32;19984;-56
2023/05/04 19:05:05;;;;;;;;;;;;;;;19.75;92.29;97757.00;18568324;32;19960;-55
2023/05/04 19:15:08;;;;;;;;;;;;;;;19.30;88.46;97771.94;18553954;32;19952;-55
2023/05/04 19:25:12;;;;;;;;;;;;;;;19.07;83.54;97793.25;18567543;32;19964;-51
2023/05/04 19:35:34;;;;;;;;;;;;;;;18.85;81.83;97794.19;18565801;31;19963;-55
2023/05/04 19:45:38;;;;;;;;;;;;;;;18.51;83.86;97798.47;18566382;32;19964;-54
2023/05/04 19:55:40;;;;;;;;;;;;;;;18.29;86.19;97806.50;18565426;32;19948;-56
2023/05/04 20:05:42;;;;;;;;;;;;;;;18.03;92.58;97824.72;18564759;32;19956;-55
2023/05/04 20:15:45;;;;;;;;;;;;;;;17.74;97.76;97835.00;18549859;32;19956;-56
2023/05/04 20:25:48;;;;;;;;;;;;;;;17.47;100.00;97835.16;18563399;31;20292;-55
2023/05/04 20:35:50;;;;;;;;;;;;;;;17.17;100.00;97837.50;18562498;31;19949;-54
2023/05/04 20:45:52;;;;;;;;;;;;;;;16.81;100.00;97841.81;18535214;32;19964;-54
2023/05/04 20:55:55;;;;;;;;;;;;;;;16.42;100.00;97845.94;18562037;32;20325;-54
2023/05/04 21:05:57;;;;;;;;;;;;;;;16.12;100.00;97839.97;18561538;32;19979;-51
2023/05/04 21:16:00;;;;;;;;;;;;;;;15.89;100.00;97839.81;18547063;32;19957;-56
2023/05/04 21:26:03;;;;;;;;;;;;;;;15.68;100.00;97836.63;18560739;32;19992;-54
2023/05/04 21:36:11;;;;;;;;;;;;;;;15.55;100.00;97840.12;18560190;32;19952;-55
2023/05/04 21:46:14;;;;;;;;;;;;;;;15.41;100.00;97842.81;18560420;32;20261;-55
2023/05/04 21:56:16;;;;;;;;;;;;;;;15.20;100.00;97836.87;18559971;32;19967;-55
2023/05/04 22:06:20;;;;;;;;;;;;;;;14.88;100.00;97841.12;18571716;32;19977;-56
2023/05/04 22:16:23;;;;;;;;;;;;;;;14.60;100.00;97840.94;18571222;31;19995;-54
2023/05/04 22:26:25;;;;;;;;;;;;;;;14.35;100.00;97842.09;18570744;32;20301;-56
2023/05/04 22:36:28;;;;;;;;;;;;;;;14.05;100.00;97849.50;18570166;31;19975;-55
2023/05/04 22:46:30;;;;;;;;;;;;;;;13.77;100.00;97841.03;18569524;32;19987;-55
2023/05/04 22:56:32;;;;;;;;;;;;;;;13.54;100.00;97851.59;18569236;32;19964;-55
2023/05/04 23:06:37;;;;;;;;;;;;;;;13.30;100.00;97856.09;18568415;32;20000;-55
2023/05/04 23:16:39;;;;;;;;;;;;;;;13.11;100.00;97864.91;18567930;32;19984;-52
2023/05/04 23:26:41;;;;;;;;;;;;;;;12.97;100.00;97881.00;18567375;32;19971;-52
2023/05/04 23:36:44;;;;;;;;;;;;;;;12.84;100.00;97877.03;18566465;31;20363;-55
2023/05/04 23:46:46;;;;;;;;;;;;;;;12.68;100.00;97865.44;18566061;32;20276;-53
2023/05/04 23:56:48;;;;;;;;;;;;;;;12.53;100.00;97871.75;18565480;32;20333;-54
